Time;durP1;ratioP1;P1;durP2;ratioP2;P2;SDS_P1;SDS_P2;PMS_P1;PMS_P2;Temp;Humidity;BMP_temperature;BMP_pressure;BME280_temperature;BME280_humidity;BME280_pressure;Samples;Min_cycle;Max_cycle;Signal;HPM_P1;HPM_P2
2022/03/24 00:02:06;;;;;;;31.67;20.93;;;;;;;4.26;57.63;102243.78;4994956;28;20238;-72
2022/03/24 00:04:33;;;;;;;34.03;21.97;;;;;;;4.23;57.74;102241.19;4991348;28;20204;-72
2022/03/24 00:07:00;;;;;;;33.80;20.83;;;;;;;4.19;57.90;102233.31;4993738;28;20246;-72
2022/03/24 00:09:26;;;;;;;36.77;21.73;;;;;;;4.17;57.80;102236.84;4992212;28;20226;-72
2022/03/24 00:11:55;;;;;;;36.77;22.47;;;;;;;4.12;58.07;102236.88;4993538;28;20203;-72
2022/03/24 00:14:21;;;;;;;38.10;23.13;;;;;;;4.08;57.54;102231.69;4992173;28;20210;-73
2022/03/24 00:16:48;;;;;;;40.13;23.60;;;;;;;4.03;57.72;102231.72;4991275;28;20227;-72
2022/03/24 00:19:17;;;;;;;37.60;22.60;;;;;;;3.98;58.11;102228.25;4995649;28;20563;-72
2022/03/24 00:21:44;;;;;;;39.97;23.07;;;;;;;3.96;58.64;102231.81;5001347;28;20211;-73
2022/03/24 00:24:10;;;;;;;40.07;23.03;;;;;;;3.95;57.88;102235.31;4990546;28;20527;-73
2022/03/24 00:26:37;;;;;;;37.20;23.07;;;;;;;3.92;58.66;102223.09;4990243;28;20231;-73
2022/03/24 00:29:06;;;;;;;39.30;22.63;;;;;;;3.89;58.73;102227.50;4990754;28;20345;-72
2022/03/24 00:31:32;;;;;;;37.77;22.37;;;;;;;3.85;58.78;102226.66;4990469;28;20711;-72
2022/03/24 00:33:59;;;;;;;35.50;21.80;;;;;;;3.82;59.42;102226.69;4987325;28;20223;-73
2022/03/24 00:36:26;;;;;;;39.10;22.80;;;;;;;3.76;59.32;102222.34;4981027;28;20652;-73
2022/03/24 00:38:53;;;;;;;37.27;21.63;;;;;;;3.71;58.89;102228.56;4990697;28;20208;-73
2022/03/24 00:41:21;;;;;;;38.93;22.50;;;;;;;3.64;59.03;102226.88;4989473;28;20212;-72
2022/03/24 00:43:48;;;;;;;41.63;22.67;;;;;;;3.57;58.80;102218.16;4983132;28;20231;-72
2022/03/24 00:46:16;;;;;;;37.37;21.87;;;;;;;3.53;59.74;102218.22;4987428;28;20244;-72
2022/03/24 00:48:43;;;;;;;40.40;22.83;;;;;;;3.49;60.12;102220.00;4988437;28;20230;-72
2022/03/24 00:51:09;;;;;;;39.10;22.57;;;;;;;3.46;59.91;102212.13;4990119;28;20587;-73
2022/03/24 00:53:36;;;;;;;41.80;23.57;;;;;;;3.44;60.06;102214.75;4990099;28;20207;-73
2022/03/24 00:56:02;;;;;;;35.30;21.17;;;;;;;3.43;59.60;102209.50;4990164;28;20732;-72
2022/03/24 00:58:29;;;;;;;34.20;21.80;;;;;;;3.39;60.26;102208.69;4989988;28;20624;-73
2022/03/24 01:00:55;;;;;;;35.37;21.57;;;;;;;3.35;60.23;102204.31;4989914;28;20669;-73
2022/03/24 01:03:23;;;;;;;35.03;21.93;;;;;;;3.31;60.44;102207.84;4986705;28;20713;-73
2022/03/24 01:05:50;;;;;;;38.97;22.80;;;;;;;3.30;60.60;102205.22;4997049;28;20246;-72
2022/03/24 01:08:18;;;;;;;35.87;21.27;;;;;;;3.29;60.31;102204.34;4989609;28;20752;-73
2022/03/24 01:10:45;;;;;;;37.57;23.13;;;;;;;3.25;60.76;102207.91;4979118;28;20700;-72
2022/03/24 01:13:11;;;;;;;35.40;21.53;;;;;;;3.23;60.26;102203.53;4986451;28;20210;-73
2022/03/24 01:15:38;;;;;;;37.47;22.10;;;;;;;3.20;61.00;102204.47;4989622;28;20254;-74
2022/03/24 01:18:07;;;;;;;34.83;21.07;;;;;;;3.17;60.33;102200.97;4988650;28;20466;-73
2022/03/24 01:20:35;;;;;;;38.67;21.73;;;;;;;3.15;60.60;102198.34;4989303;28;20203;-74
2022/03/24 01:23:02;;;;;;;36.43;22.53;;;;;;;3.13;60.96;102205.38;4993930;28;20220;-73
2022/03/24 01:25:29;;;;;;;36.60;20.83;;;;;;;3.11;61.00;102210.66;4995338;28;20224;-74
2022/03/24 01:27:55;;;;;;;31.23;20.57;;;;;;;3.06;60.90;102198.41;4991309;28;20207;-73
2022/03/24 01:30:22;;;;;;;38.50;21.17;;;;;;;3.02;61.38;102201.97;4993411;28;20604;-73
2022/03/24 01:32:49;;;;;;;39.67;21.97;;;;;;;2.96;60.71;102194.97;4988614;28;20195;-73
2022/03/24 01:35:17;;;;;;;40.83;22.23;;;;;;;2.91;61.26;102190.63;4994790;28;20219;-73
2022/03/24 01:37:45;;;;;;;34.73;21.57;;;;;;;2.88;61.05;102190.63;4992512;28;20222;-73
2022/03/24 01:40:13;;;;;;;36.63;21.67;;;;;;;2.84;61.52;102191.56;4994944;28;20203;-73
2022/03/24 01:42:43;;;;;;;38.23;22.97;;;;;;;2.80;61.46;102195.97;4990932;28;20212;-74
2022/03/24 01:45:10;;;;;;;37.83;23.27;;;;;;;2.77;62.17;102194.22;4994605;28;20313;-73
2022/03/24 01:47:37;;;;;;;39.90;22.17;;;;;;;2.74;61.97;102189.00;4990895;28;20207;-74
2022/03/24 01:50:05;;;;;;;35.47;21.97;;;;;;;2.70;61.87;102194.28;4991856;28;20222;-74
2022/03/24 01:52:31;;;;;;;38.97;21.50;;;;;;;2.65;62.13;102189.06;4992610;28;20207;-72
2022/03/24 01:55:00;;;;;;;38.43;22.57;;;;;;;2.60;62.63;102187.34;4993732;28;20215;-74
2022/03/24 01:57:29;;;;;;;40.37;22.07;;;;;;;2.55;63.06;102195.25;4991226;28;20211;-74
2022/03/24 01:59:56;;;;;;;38.07;22.20;;;;;;;2.51;62.62;102185.63;4993822;28;20211;-74
2022/03/24 02:02:23;;;;;;;38.03;22.00;;;;;;;2.47;62.61;102191.78;4993116;28;20326;-74
2022/03/24 02:04:50;;;;;;;37.57;21.87;;;;;;;2.40;62.76;102187.44;4989669;28;20613;-74
2022/03/24 02:07:16;;;;;;;37.83;22.47;;;;;;;2.35;63.27;102178.69;4993738;28;20599;-72
2022/03/24 02:09:43;;;;;;;39.37;22.83;;;;;;;2.31;63.36;102183.13;4991997;28;20589;-72
2022/03/24 02:12:13;;;;;;;41.77;23.93;;;;;;;2.29;63.56;102178.75;4990455;28;20211;-71
2022/03/24 02:14:41;;;;;;;38.47;21.23;;;;;;;2.27;64.15;102173.50;4990941;28;20210;-72
2022/03/24 02:17:07;;;;;;;38.67;21.90;;;;;;;2.24;63.81;102191.03;4988579;28;20234;-72
2022/03/24 02:19:36;;;;;;;39.10;22.70;;;;;;;2.21;64.04;102177.91;4986382;28;20207;-71
2022/03/24 02:22:10;;;;;;;39.23;21.80;;;;;;;2.21;64.35;102183.16;4993481;28;20208;-72
2022/03/24 02:24:37;;;;;;;40.00;22.73;;;;;;;2.19;64.35;102179.66;4990379;28;20257;-72
2022/03/24 02:27:04;;;;;;;38.27;22.23;;;;;;;2.18;64.90;102185.78;4993512;28;20298;-72
2022/03/24 02:29:31;;;;;;;39.23;23.27;;;;;;;2.17;64.66;102182.28;4990245;28;20230;-72
2022/03/24 02:31:57;;;;;;;35.73;21.80;;;;;;;2.18;65.07;102180.53;4993670;28;20227;-72
2022/03/24 02:34:47;;;;;;;39.13;22.33;;;;;;;2.16;65.24;102171.78;4991942;28;20211;-72
2022/03/24 02:37:17;;;;;;;41.47;22.67;;;;;;;2.16;64.96;102177.03;4990132;28;20203;-71
2022/03/24 02:39:45;;;;;;;39.80;23.00;;;;;;;2.15;65.58;102178.78;4991895;28;20299;-71
2022/03/24 02:42:14;;;;;;;40.80;21.90;;;;;;;2.15;64.81;102177.94;4994434;28;20290;-72
2022/03/24 02:44:42;;;;;;;33.63;20.47;;;;;;;2.09;65.43;102176.19;4993542;28;20238;-73
2022/03/24 02:47:10;;;;;;;38.73;20.90;;;;;;;2.02;64.79;102180.59;4997268;28;20207;-72
2022/03/24 02:49:38;;;;;;;39.63;21.97;;;;;;;1.95;64.04;102183.28;4993587;28;20208;-72
2022/03/24 02:52:06;;;;;;;40.07;21.67;;;;;;;1.87;64.93;102182.41;4998344;28;20211;-72
2022/03/24 02:54:34;;;;;;;34.33;20.40;;;;;;;1.82;65.23;102187.66;4996091;28;20208;-72
2022/03/24 02:57:01;;;;;;;39.20;21.73;;;;;;;1.78;64.71;102188.59;4992589;28;20236;-72
2022/03/24 02:59:28;;;;;;;38.30;22.73;;;;;;;1.75;65.07;102180.69;4994014;28;20700;-72
2022/03/24 03:01:56;;;;;;;36.33;22.37;;;;;;;1.75;65.50;102191.22;4996746;28;20204;-72
2022/03/24 03:04:23;;;;;;;39.10;22.30;;;;;;;1.71;65.56;102184.22;4996597;28;20227;-72
2022/03/24 03:06:50;;;;;;;37.73;21.97;;;;;;;1.70;65.64;102177.19;5007326;23;20601;-68
2022/03/24 03:09:18;;;;;;;35.73;22.43;;;;;;;1.71;66.15;102178.97;4996420;28;20214;-68
2022/03/24 03:11:47;;;;;;;38.63;22.67;;;;;;;1.70;65.68;102179.84;4992916;28;20294;-68
2022/03/24 03:14:15;;;;;;;35.97;20.67;;;;;;;1.66;66.14;102180.72;4995434;28;20554;-68
2022/03/24 03:16:44;;;;;;;36.83;22.07;;;;;;;1.59;65.75;102181.63;4982110;28;20232;-68
2022/03/24 03:19:11;;;;;;;37.97;20.10;;;;;;;1.51;65.25;102192.13;4976557;28;20203;-68
2022/03/24 03:21:38;;;;;;;37.57;21.77;;;;;;;1.44;65.54;102190.38;4976361;28;20207;-68
2022/03/24 03:24:06;;;;;;;34.40;21.27;;;;;;;1.38;65.37;102195.66;4974230;28;20232;-68
2022/03/24 03:26:33;;;;;;;38.40;22.53;;;;;;;1.34;65.90;102202.66;4975602;28;20224;-70
2022/03/24 03:29:01;;;;;;;38.10;22.13;;;;;;;1.32;65.92;102207.03;4975816;28;20573;-69
2022/03/24 03:31:28;;;;;;;35.80;22.03;;;;;;;1.30;66.07;102205.25;4973409;28;20211;-68
2022/03/24 03:33:56;;;;;;;38.43;22.40;;;;;;;1.26;66.00;102195.63;4974597;28;20702;-68
2022/03/24 03:36:24;;;;;;;39.13;22.17;;;;;;;1.23;66.18;102190.41;4975758;28;20731;-68
2022/03/24 03:38:50;;;;;;;36.50;21.63;;;;;;;1.21;66.26;102192.16;4973746;28;20204;-70
2022/03/24 03:41:20;;;;;;;37.27;22.77;;;;;;;1.18;66.28;102190.41;4976875;28;20223;-68
2022/03/24 03:43:47;;;;;;;37.83;21.87;;;;;;;1.17;66.62;102190.41;4975482;28;20271;-68
2022/03/24 03:46:16;;;;;;;41.60;22.17;;;;;;;1.16;66.02;102188.66;4973005;28;20255;-69
2022/03/24 03:48:43;;;;;;;42.33;24.17;;;;;;;1.15;67.10;102194.78;4974648;28;20200;-68
2022/03/24 03:51:09;;;;;;;39.00;23.27;;;;;;;1.15;67.07;102190.41;4977821;28;20558;-68
2022/03/24 03:53:37;;;;;;;37.47;21.93;;;;;;;1.16;67.24;102189.53;4975851;28;20211;-68
2022/03/24 03:56:05;;;;;;;40.03;22.17;;;;;;;1.15;67.10;102192.16;4976485;28;20224;-68
2022/03/24 03:58:31;;;;;;;38.10;21.23;;;;;;;1.14;67.05;102190.41;4972746;28;20662;-70
2022/03/24 04:00:58;;;;;;;37.73;21.17;;;;;;;1.11;67.42;102190.41;4976544;28;20666;-68
2022/03/24 04:03:28;;;;;;;40.60;22.20;;;;;;;1.07;67.10;102192.16;4975543;28;21200;-68
2022/03/24 04:05:56;;;;;;;37.27;21.13;;;;;;;1.02;67.46;102186.91;4973814;28;20242;-70
2022/03/24 04:08:23;;;;;;;41.37;20.83;;;;;;;0.99;67.47;102192.16;4975850;28;20200;-68
2022/03/24 04:10:50;;;;;;;37.50;21.80;;;;;;;0.97;67.50;102193.03;4975429;28;20200;-68
2022/03/24 04:13:17;;;;;;;38.83;21.17;;;;;;;0.96;67.53;102193.88;4975259;28;20209;-68
2022/03/24 04:15:44;;;;;;;36.97;21.93;;;;;;;0.93;68.01;102186.88;4975152;28;20223;-68
2022/03/24 04:18:11;;;;;;;41.20;22.47;;;;;;;0.92;68.23;102185.13;4976955;28;20203;-68
2022/03/24 04:20:39;;;;;;;39.77;22.00;;;;;;;0.92;68.17;102195.63;4979683;28;20214;-67
2022/03/24 04:23:07;;;;;;;40.27;23.03;;;;;;;0.91;68.08;102182.50;4982208;28;20411;-68
2022/03/24 04:25:35;;;;;;;36.07;20.20;;;;;;;0.90;68.53;102183.38;4971976;28;20228;-68
2022/03/24 04:28:02;;;;;;;36.40;20.83;;;;;;;0.86;68.20;102186.91;4971292;28;20205;-69
2022/03/24 04:30:28;;;;;;;38.93;22.47;;;;;;;0.81;68.47;102186.88;4971099;28;20663;-68
2022/03/24 04:32:55;;;;;;;41.33;22.50;;;;;;;0.80;68.73;102184.25;4970945;28;20577;-71
2022/03/24 04:35:22;;;;;;;36.17;20.80;;;;;;;0.77;68.73;102187.75;4971489;28;20215;-69
2022/03/24 04:37:51;;;;;;;38.87;20.60;;;;;;;0.76;69.00;102193.00;4971486;28;20208;-69
2022/03/24 04:40:19;;;;;;;39.57;21.47;;;;;;;0.75;68.76;102186.00;4970938;28;20220;-68
2022/03/24 04:42:48;;;;;;;35.93;21.87;;;;;;;0.75;69.43;102186.00;4971112;28;20463;-69
2022/03/24 04:45:15;;;;;;;39.60;21.57;;;;;;;0.73;69.32;102174.63;4969993;28;20232;-69
2022/03/24 04:47:42;;;;;;;41.00;21.43;;;;;;;0.74;68.86;102185.13;4969339;28;20208;-68
2022/03/24 04:50:09;;;;;;;37.47;21.97;;;;;;;0.75;69.36;102175.50;4969937;28;20910;-68
2022/03/24 04:52:36;;;;;;;41.07;20.97;;;;;;;0.76;69.46;102177.25;4977587;28;20697;-69
2022/03/24 04:55:07;;;;;;;39.40;21.80;;;;;;;0.75;69.75;102183.38;4965245;28;20204;-69
2022/03/24 04:57:34;;;;;;;43.47;21.60;;;;;;;0.76;69.96;102187.75;4963734;28;20608;-68
2022/03/24 05:00:00;;;;;;;38.10;21.40;;;;;;;0.75;70.12;102186.88;4972850;28;20549;-68
2022/03/24 05:02:27;;;;;;;38.17;21.03;;;;;;;0.71;69.82;102187.75;4968632;28;20352;-69
2022/03/24 05:04:54;;;;;;;35.47;21.07;;;;;;;0.67;69.51;102181.63;4971869;28;20228;-68
2022/03/24 05:07:21;;;;;;;32.90;19.80;;;;;;;0.62;69.67;102180.75;4969778;28;20231;-69
2022/03/24 05:09:50;;;;;;;34.53;19.87;;;;;;;0.57;69.63;102177.22;4968228;28;20209;-68
2022/03/24 05:12:18;;;;;;;37.57;19.93;;;;;;;0.54;69.76;102181.56;4966844;28;20201;-68
2022/03/24 05:14:44;;;;;;;41.17;20.67;;;;;;;0.48;69.51;102174.59;4964295;28;20212;-68
2022/03/24 05:17:12;;;;;;;34.30;20.03;;;;;;;0.43;69.22;102181.56;4965761;28;20228;-68
2022/03/24 05:19:39;;;;;;;32.27;19.47;;;;;;;0.39;69.04;102182.41;4968649;28;20303;-69
2022/03/24 05:22:06;;;;;;;38.67;21.00;;;;;;;0.35;69.43;102183.31;4969010;28;20200;-68
2022/03/24 05:24:33;;;;;;;36.30;20.30;;;;;;;0.32;69.46;102180.69;4968465;28;20224;-68
2022/03/24 05:26:59;;;;;;;36.23;20.07;;;;;;;0.29;69.25;102176.28;4966162;28;20228;-69
2022/03/24 05:29:27;;;;;;;33.63;19.63;;;;;;;0.26;69.50;102186.75;4968013;28;20359;-68
2022/03/24 05:31:54;;;;;;;36.40;19.80;;;;;;;0.24;69.60;102183.25;4972989;28;20670;-68
2022/03/24 05:34:20;;;;;;;38.50;21.43;;;;;;;0.23;69.87;102189.38;4967340;28;20217;-68
2022/03/24 05:36:47;;;;;;;37.47;19.63;;;;;;;0.23;69.88;102181.50;4969983;28;20228;-69
2022/03/24 05:39:14;;;;;;;38.90;21.10;;;;;;;0.22;70.00;102177.13;4959454;28;20216;-68
2022/03/24 05:41:41;;;;;;;41.23;22.00;;;;;;;0.23;70.16;102180.63;4959538;28;20220;-68
2022/03/24 05:44:07;;;;;;;42.33;21.67;;;;;;;0.23;70.12;102189.38;4970349;28;20331;-69
2022/03/24 05:46:38;;;;;;;41.43;22.27;;;;;;;0.26;70.57;102189.38;4970269;28;20830;-69
2022/03/24 05:49:06;;;;;;;38.83;20.97;;;;;;;0.29;70.67;102188.53;4967886;28;20244;-68
2022/03/24 05:51:33;;;;;;;38.20;20.30;;;;;;;0.33;70.94;102187.66;4967140;28;20216;-68
2022/03/24 05:54:00;;;;;;;45.07;22.27;;;;;;;0.37;70.93;102186.78;4972272;28;20214;-69
2022/03/24 05:56:28;;;;;;;40.60;21.73;;;;;;;0.42;71.15;102190.31;4966939;28;20223;-68
2022/03/24 05:58:56;;;;;;;37.80;20.97;;;;;;;0.47;71.33;102187.69;4968081;28;20200;-69
2022/03/24 06:01:24;;;;;;;41.77;22.40;;;;;;;0.52;71.60;102188.59;4970610;28;20593;-68
2022/03/24 06:03:52;;;;;;;37.73;21.83;;;;;;;0.56;71.57;102188.59;4967310;28;20208;-68
2022/03/24 06:06:22;;;;;;;47.03;20.93;;;;;;;0.62;71.74;102191.22;4976468;28;20239;-68
2022/03/24 06:08:49;;;;;;;43.00;23.30;;;;;;;0.67;71.91;102199.13;4969298;28;20231;-69
2022/03/24 06:11:16;;;;;;;45.60;20.67;;;;;;;0.72;72.01;102196.50;4972907;28;20215;-69
2022/03/24 06:13:43;;;;;;;39.73;22.37;;;;;;;0.77;71.98;102193.00;4969701;28;20682;-69
2022/03/24 06:16:10;;;;;;;35.57;21.10;;;;;;;0.79;72.33;102195.63;4969841;28;20232;-68
2022/03/24 06:18:37;;;;;;;39.17;21.63;;;;;;;0.82;72.48;102200.88;4979471;28;20208;-68
2022/03/24 06:21:05;;;;;;;40.13;21.20;;;;;;;0.83;72.31;102195.63;4991508;28;20229;-68
2022/03/24 06:23:32;;;;;;;36.03;19.97;;;;;;;0.85;72.51;102193.03;4993109;28;20627;-68
2022/03/24 06:25:59;;;;;;;44.37;22.77;;;;;;;0.87;72.54;102193.91;4992883;28;20241;-68
2022/03/24 06:28:26;;;;;;;37.13;20.67;;;;;;;0.89;72.74;102200.91;4982296;28;20200;-68
2022/03/24 06:30:52;;;;;;;41.53;21.53;;;;;;;0.92;72.95;102200.88;4973662;28;20318;-68
2022/03/24 06:33:19;;;;;;;39.37;22.07;;;;;;;0.97;72.82;102200.88;4973221;28;20218;-68
2022/03/24 06:35:48;;;;;;;41.27;22.23;;;;;;;1.02;73.34;102201.78;4973231;28;20223;-68
2022/03/24 06:38:17;;;;;;;45.07;22.03;;;;;;;1.08;73.26;102200.88;4972426;28;20207;-69
2022/03/24 06:40:44;;;;;;;43.20;22.40;;;;;;;1.15;73.78;102206.16;4973041;28;20306;-68
2022/03/24 06:43:12;;;;;;;41.30;23.47;;;;;;;1.21;73.69;102206.16;4972673;28;20209;-68
2022/03/24 06:45:39;;;;;;;39.10;22.80;;;;;;;1.28;73.92;102209.63;4972767;28;20259;-68
2022/03/24 06:48:07;;;;;;;44.27;22.73;;;;;;;1.35;73.91;102211.41;4972609;28;20211;-68
2022/03/24 06:50:34;;;;;;;45.00;22.93;;;;;;;1.41;74.04;102214.03;4973349;28;20220;-69
2022/03/24 06:53:01;;;;;;;47.43;22.57;;;;;;;1.49;74.22;102217.50;4973293;28;20205;-68
2022/03/24 06:55:29;;;;;;;44.73;24.83;;;;;;;1.58;74.62;102214.00;4973494;28;20311;-69
2022/03/24 06:57:57;;;;;;;42.83;24.20;;;;;;;1.66;74.40;102206.97;4972976;28;20209;-69
2022/03/24 07:00:23;;;;;;;50.60;25.67;;;;;;;1.75;75.25;102206.97;4973277;28;20200;-68
2022/03/24 07:02:50;;;;;;;48.83;24.30;;;;;;;1.84;74.80;102209.56;4972659;28;20223;-69
2022/03/24 07:05:16;;;;;;;42.27;23.90;;;;;;;1.95;75.36;102209.56;4972926;28;20230;-68
2022/03/24 07:07:44;;;;;;;41.23;23.17;;;;;;;2.06;75.76;102211.25;4972676;28;20219;-69
2022/03/24 07:10:11;;;;;;;46.67;24.13;;;;;;;2.18;75.76;102209.44;4953528;28;20209;-68
2022/03/24 07:12:39;;;;;;;49.23;24.90;;;;;;;2.29;76.01;102213.78;4970216;28;20214;-69
2022/03/24 07:15:08;;;;;;;49.47;25.13;;;;;;;2.43;75.79;102216.34;4966625;28;20204;-69
2022/03/24 07:17:34;;;;;;;47.17;25.47;;;;;;;2.54;75.84;102227.69;4974627;28;20201;-68
2022/03/24 07:20:03;;;;;;;49.57;25.87;;;;;;;2.64;76.29;102223.25;4978670;28;20234;-69
2022/03/24 07:22:32;;;;;;;46.43;26.20;;;;;;;2.74;75.91;102224.94;4974154;28;20208;-70
2022/03/24 07:24:59;;;;;;;44.20;25.10;;;;;;;2.83;76.18;102224.91;4973133;28;20577;-68
2022/03/24 07:27:26;;;;;;;41.20;23.97;;;;;;;2.92;75.60;102221.31;4967987;28;20248;-68
2022/03/24 07:29:53;;;;;;;49.47;25.73;;;;;;;3.03;75.83;102223.00;4967757;28;20597;-69
2022/03/24 07:32:20;;;;;;;44.17;24.97;;;;;;;3.16;75.12;102229.06;4969383;28;20264;-68
2022/03/24 07:34:47;;;;;;;45.83;24.30;;;;;;;3.29;75.54;102230.69;4969913;28;20205;-68
2022/03/24 07:37:14;;;;;;;44.33;24.80;;;;;;;3.43;74.75;102239.34;4974117;28;20732;-68
2022/03/24 07:39:41;;;;;;;40.00;23.87;;;;;;;3.60;74.60;102231.28;4984020;28;20284;-69
2022/03/24 07:42:08;;;;;;;44.50;24.73;;;;;;;3.77;73.68;102223.22;4973907;28;20204;-69
2022/03/24 07:44:35;;;;;;;45.43;24.53;;;;;;;3.95;73.77;102230.94;4972248;28;20262;-69
2022/03/24 07:47:03;;;;;;;42.57;24.23;;;;;;;4.12;73.99;102236.88;4972233;28;20220;-68
2022/03/24 07:49:30;;;;;;;38.43;23.23;;;;;;;4.30;72.97;102238.44;4973164;28;20208;-69
2022/03/24 07:51:56;;;;;;;44.87;24.80;;;;;;;4.48;72.50;102237.34;4977822;28;20208;-69
2022/03/24 07:54:40;;;;;;;39.50;23.60;;;;;;;4.69;72.53;102241.44;4975262;28;20219;-69
2022/03/24 07:57:07;;;;;;;44.20;25.43;;;;;;;4.87;72.07;102239.44;4981250;28;20243;-69
2022/03/24 07:59:34;;;;;;;46.70;25.37;;;;;;;5.07;71.67;102239.13;4969121;28;20655;-69
2022/03/24 08:02:02;;;;;;;46.87;25.40;;;;;;;5.26;71.34;102241.50;4971812;28;20209;-69
2022/03/24 08:04:29;;;;;;;49.47;26.53;;;;;;;5.46;71.12;102239.41;4970529;28;20204;-69
2022/03/24 08:06:55;;;;;;;47.43;25.93;;;;;;;5.63;70.14;102247.03;4972141;28;20228;-69
2022/03/24 08:09:22;;;;;;;46.83;26.67;;;;;;;5.78;69.35;102237.06;4973624;28;20568;-69
2022/03/24 08:11:48;;;;;;;44.77;26.10;;;;;;;5.98;68.93;102239.38;4971661;28;20216;-69
2022/03/24 08:14:15;;;;;;;44.70;24.27;;;;;;;6.17;68.86;102238.09;4974567;28;20203;-69
2022/03/24 08:16:45;;;;;;;41.97;24.93;;;;;;;6.37;68.12;102232.41;4971360;28;20588;-70
2022/03/24 08:19:14;;;;;;;37.67;24.03;;;;;;;6.57;66.85;102243.47;4971471;28;20200;-70
2022/03/24 08:21:41;;;;;;;40.70;24.27;;;;;;;6.75;66.36;102238.66;4969259;28;20216;-70
2022/03/24 08:24:08;;;;;;;39.60;23.93;;;;;;;6.95;65.42;102247.91;4971970;28;20227;-70
2022/03/24 08:26:35;;;;;;;39.70;24.47;;;;;;;7.16;64.63;102253.63;4971322;28;20529;-70
2022/03/24 08:29:02;;;;;;;41.50;25.27;;;;;;;7.36;64.30;102247.81;4968163;28;20521;-69
2022/03/24 08:31:29;;;;;;;41.50;23.63;;;;;;;7.59;63.93;102250.75;4969134;28;20267;-69
2022/03/24 08:33:56;;;;;;;41.40;25.57;;;;;;;7.80;62.13;102249.34;4971295;28;20247;-69
2022/03/24 08:36:25;;;;;;;36.37;23.73;;;;;;;7.99;61.79;102246.16;4969948;28;20307;-70
2022/03/24 08:38:51;;;;;;;38.53;23.77;;;;;;;8.21;60.87;102242.91;4970237;28;20231;-70
2022/03/24 08:41:18;;;;;;;38.27;23.50;;;;;;;8.39;59.36;102239.78;4974552;28;20204;-70
2022/03/24 08:43:44;;;;;;;38.63;23.97;;;;;;;8.59;58.42;102240.06;4968959;28;20209;-70
2022/03/24 08:46:11;;;;;;;40.93;23.13;;;;;;;8.76;58.29;102246.66;4968759;28;20234;-71
2022/03/24 08:48:38;;;;;;;38.17;24.60;;;;;;;8.93;56.85;102250.53;4965305;28;20212;-70
2022/03/24 08:51:06;;;;;;;40.93;24.03;;;;;;;9.15;56.72;102252.47;4967478;28;20378;-70
2022/03/24 08:53:33;;;;;;;40.67;24.27;;;;;;;9.33;56.29;102251.88;4971185;28;20814;-70
2022/03/24 08:56:00;;;;;;;39.10;24.27;;;;;;;9.55;56.26;102246.75;4973031;28;20251;-70
2022/03/24 08:58:27;;;;;;;37.43;23.67;;;;;;;9.73;54.63;102257.63;4968966;28;20204;-71
2022/03/24 09:00:53;;;;;;;38.70;23.67;;;;;;;9.92;53.67;102247.22;4967749;28;20205;-67
2022/03/24 09:03:20;;;;;;;35.50;23.63;;;;;;;10.08;53.37;102259.06;4966467;28;20576;-69
2022/03/24 09:05:46;;;;;;;36.07;22.97;;;;;;;10.26;52.92;102252.22;4992645;23;21011;-74
2022/03/24 09:08:13;;;;;;;39.63;23.73;;;;;;;10.40;52.55;102241.94;4981517;28;20207;-73
2022/03/24 09:10:41;;;;;;;36.43;22.77;;;;;;;10.59;51.48;102249.22;4980889;28;20755;-74
2022/03/24 09:13:08;;;;;;;41.07;23.57;;;;;;;10.76;51.02;102252.13;4982239;28;20207;-74
2022/03/24 09:15:35;;;;;;;39.80;23.80;;;;;;;10.91;50.55;102246.22;4985243;28;20207;-74
2022/03/24 09:18:01;;;;;;;37.70;23.83;;;;;;;11.05;49.95;102243.00;4983568;28;20355;-74
2022/03/24 09:20:28;;;;;;;41.97;24.20;;;;;;;11.19;49.53;102251.28;4981967;28;20227;-75
2022/03/24 09:22:54;;;;;;;47.00;24.50;;;;;;;11.32;49.38;102249.84;4984478;28;20690;-73
2022/03/24 09:25:21;;;;;;;41.13;24.00;;;;;;;11.46;49.10;102250.16;4988182;28;20229;-74
2022/03/24 09:27:49;;;;;;;40.80;24.10;;;;;;;11.60;48.83;102251.41;4988045;28;20286;-74
2022/03/24 09:30:18;;;;;;;38.50;24.90;;;;;;;11.70;48.31;102248.25;4987828;28;20246;-74
2022/03/24 09:32:45;;;;;;;41.07;24.60;;;;;;;11.85;47.77;102248.56;4985742;28;20575;-75
2022/03/24 09:35:13;;;;;;;40.10;25.10;;;;;;;11.96;47.50;102247.19;4987955;28;20278;-74
2022/03/24 09:37:42;;;;;;;42.27;24.97;;;;;;;12.09;47.38;102244.81;4988009;28;20231;-74
2022/03/24 09:40:10;;;;;;;40.50;24.80;;;;;;;12.21;46.46;102248.75;4988616;28;20200;-75
2022/03/24 09:42:38;;;;;;;45.47;26.30;;;;;;;12.32;46.49;102243.81;4988496;28;20209;-74
2022/03/24 09:45:09;;;;;;;44.23;24.93;;;;;;;12.49;46.46;102241.22;4988898;28;20210;-74
2022/03/24 09:47:36;;;;;;;37.63;24.87;;;;;;;12.66;45.95;102249.34;4988523;28;20290;-74
2022/03/24 09:50:03;;;;;;;38.13;24.90;;;;;;;12.81;45.22;102250.41;4988618;28;20217;-74
2022/03/24 09:52:30;;;;;;;43.87;24.27;;;;;;;12.94;44.92;102246.22;4986664;28;20274;-74
2022/03/24 09:54:57;;;;;;;42.03;24.90;;;;;;;13.03;44.58;102245.78;4989080;28;20211;-74
2022/03/24 09:57:23;;;;;;;44.13;24.57;;;;;;;13.13;44.43;102244.38;4989694;28;20223;-74
2022/03/24 09:59:51;;;;;;;33.83;23.80;;;;;;;13.23;43.82;102243.97;4988788;28;20212;-74
2022/03/24 10:02:20;;;;;;;42.10;24.10;;;;;;;13.33;43.52;102243.44;4988848;28;20219;-74
2022/03/24 10:04:49;;;;;;;44.33;25.83;;;;;;;13.44;43.09;102245.56;4988631;28;20631;-74
2022/03/24 10:07:16;;;;;;;40.03;24.57;;;;;;;13.50;42.95;102240.78;4985176;28;20231;-74
2022/03/24 10:09:45;;;;;;;36.07;23.03;;;;;;;13.60;42.70;102241.22;4987898;28;20208;-74
2022/03/24 10:12:19;;;;;;;42.30;23.30;;;;;;;13.70;42.25;102236.25;4987462;28;20219;-74
2022/03/24 10:14:46;;;;;;;40.30;24.30;;;;;;;13.79;42.56;102231.25;4986708;28;20198;-74
2022/03/24 10:17:13;;;;;;;37.63;23.53;;;;;;;13.89;42.24;102237.03;4985628;28;20731;-74
2022/03/24 10:19:56;;;;;;;36.97;23.00;;;;;;;14.02;41.50;102226.53;4987761;28;20274;-74
2022/03/24 10:22:22;;;;;;;38.73;23.90;;;;;;;14.09;41.53;102220.78;4991467;28;20207;-74
2022/03/24 10:24:49;;;;;;;40.17;24.67;;;;;;;14.20;41.52;102237.13;4994109;28;20204;-73
2022/03/24 10:27:21;;;;;;;37.13;22.90;;;;;;;14.32;41.04;102219.56;4993279;28;20258;-74
2022/03/24 10:29:48;;;;;;;41.63;22.67;;;;;;;14.42;40.69;102220.81;4992121;28;20200;-74
2022/03/24 10:32:15;;;;;;;33.50;22.90;;;;;;;14.49;39.73;102219.53;4991534;28;20203;-74
2022/03/24 10:34:46;;;;;;;33.73;22.53;;;;;;;14.57;39.53;102224.44;4988642;28;20207;-75
2022/03/24 10:37:17;;;;;;;34.93;22.50;;;;;;;14.62;39.04;102217.03;4993157;28;20231;-74
2022/03/24 10:39:56;;;;;;;31.73;20.40;;;;;;;14.69;38.82;102218.41;4996875;28;20223;-74
2022/03/24 10:42:26;;;;;;;36.43;22.50;;;;;;;14.74;37.91;102216.34;4989614;28;20570;-74
2022/03/24 10:45:15;;;;;;;29.33;21.30;;;;;;;14.79;38.46;102210.72;4993393;28;20294;-74
2022/03/24 10:47:44;;;;;;;35.83;21.87;;;;;;;14.82;37.67;102203.38;4986274;28;20821;-75
2022/03/24 10:50:39;;;;;;;33.30;20.53;;;;;;;14.85;37.75;102202.34;4987684;28;20211;-74
2022/03/24 10:53:08;;;;;;;31.10;19.97;;;;;;;14.88;37.31;102199.47;4969745;28;20250;-74
2022/03/24 10:55:53;;;;;;;33.50;20.60;;;;;;;14.89;37.28;102199.38;4988284;28;20219;-73
2022/03/24 10:58:23;;;;;;;32.73;19.73;;;;;;;14.94;36.74;102196.44;4983790;28;20311;-74
2022/03/24 11:00:52;;;;;;;32.70;20.43;;;;;;;14.97;36.67;102196.28;4996445;28;20211;-75
2022/03/24 11:03:20;;;;;;;32.17;20.63;;;;;;;15.03;36.99;102189.69;4991824;28;20201;-74
2022/03/24 11:05:48;;;;;;;32.03;20.87;;;;;;;15.11;37.43;102193.66;4986393;28;20239;-74
2022/03/24 11:08:17;;;;;;;41.23;21.97;;;;;;;15.20;36.93;102198.50;4993759;28;20211;-74
2022/03/24 11:10:46;;;;;;;32.07;21.03;;;;;;;15.29;37.07;102200.63;4996381;28;20208;-74
2022/03/24 11:13:20;;;;;;;32.83;20.93;;;;;;;15.38;36.85;102193.00;4996631;28;20830;-74
2022/03/24 11:15:48;;;;;;;31.87;20.23;;;;;;;15.44;36.21;102189.94;4996092;28;20611;-74
2022/03/24 11:18:15;;;;;;;28.57;20.57;;;;;;;15.47;36.13;102184.41;4994771;28;20211;-74